Terminal Aerodrome Forecast
Issued by NWS Buffalo, NY

Home | Current Version | Previous Version | Text Only | Print | Product List | Glossary On
Versions: 1 2 3 4 5 6 7 8 9 10 11 12 13 14 15 16 17 18 19 20 21 22 23 24 25 26 27
567
FTUS41 KBUF 260824 AAA
TAFROC
TAF AMD
KROC 260824Z 2608/2706 27006KT 5SM -DZ BR BKN004
      TEMPO 2608/2611 SCT004 OVC015
     FM261500 30008KT P6SM OVC007
     FM261800 30008KT P6SM VCSH OVC015
     FM270000 29005KT P6SM OVC015=

USA.gov is the U.S. government's official web portal to all federal, state and local government web resources and services.